This is the latest recevied weather packets stored in our database for station/object N4MGC. If no packets are shown the sender has not sent any weather packets the latest 1 day(s).
| Time | Temp. | Humidity | Pressure | Rain* | Wind** | Luminosity | Snow |
|---|---|---|---|---|---|---|---|
| 1778015048 | 24.44° C | 65% | 1011.8 hPa | 0 mm | 0 m/s | 184 W/m² | - |
| 1778014745 | 24.44° C | 63% | 1011.6 hPa | 0 mm | 0 m/s | 222 W/m² | - |
| 1778014443 | 23.89° C | 65% | 1011.9 hPa | 0 mm | 0 m/s | 170 W/m² | - |
| 1778014140 | 23.89° C | 61% | 1012 hPa | 0 mm | 1.34 m/s, 206° | 138 W/m² | - |
| 1778013837 | 23.89° C | 66% | 1012 hPa | 0 mm | 0 m/s | 148 W/m² | - |
| 1778013535 | 24.44° C | 61% | 1012 hPa | 0 mm | 0 m/s | 131 W/m² | - |
| 1778013231 | 24.44° C | 60% | 1012.1 hPa | 0 mm | 0 m/s | 163 W/m² | - |
| 1778012927 | 25.56° C | 62% | 1012.1 hPa | 0 mm | 0 m/s | 188 W/m² | - |
| 1778012624 | 25.56° C | 59% | 1012 hPa | 0 mm | 0 m/s | 290 W/m² | - |
| 1778012320 | 25° C | 60% | 1012.3 hPa | 0 mm | 0 m/s | 407 W/m² | - |
| 1778012018 | 25° C | 59% | 1011.9 hPa | 0 mm | 0 m/s | 409 W/m² | - |
| 1778011716 | 24.44° C | 59% | 1012 hPa | 0 mm | 0 m/s | 324 W/m² | - |
| 1778011412 | 25° C | 57% | 1011.9 hPa | 0 mm | 0.89 m/s, 191° | 304 W/m² | - |
| 1778011108 | 25° C | 62% | 1012 hPa | 0 mm | 0 m/s | 368 W/m² | - |
| 1778010805 | 25.56° C | 55% | 1012 hPa | 0 mm | 0.89 m/s, 218° | 528 W/m² | - |
| 1778010502 | 25.56° C | 61% | 1012.4 hPa | 0 mm | 0 m/s | 448 W/m² | - |
| 1778010200 | 26.67° C | 55% | 1012 hPa | 0 mm | 0 m/s | 636 W/m² | - |
| 1778009895 | 26.11° C | 56% | 1012.2 hPa | 0 mm | 0 m/s | 707 W/m² | - |
| 1778009593 | 26.11° C | 59% | 1012.6 hPa | 0 mm | 0 m/s | 727 W/m² | - |
| 1778009291 | 26.11° C | 58% | 1012.7 hPa | 0 mm | 0 m/s | 778 W/m² | - |
| 1778008989 | 26.11° C | 58% | 1012.4 hPa | 0 mm | 1.34 m/s, 234° | 747 W/m² | - |
| 1778008686 | 25.56° C | 59% | 1012.7 hPa | 0 mm | 0 m/s | 688 W/m² | - |
| 1778008384 | 25.56° C | 58% | 1012.6 hPa | 0 mm | 0 m/s | 665 W/m² | - |
| 1778008080 | 25.56° C | 59% | 1012.9 hPa | 0 mm | 0 m/s | 521 W/m² | - |
| 1778007776 | 25° C | 60% | 1012.8 hPa | 0 mm | 0 m/s | 674 W/m² | - |
* Rain latest hour (hover to see other rain measurements)
** Current wind speed in m/s (hover to see current wind gust speed)